createdAt,value
2018-07-09T00:00:58.305Z,1.00
2018-07-09T00:03:26.661Z,0.90
2018-07-09T00:05:54.740Z,1.00
2018-07-09T00:08:23.119Z,1.10
2018-07-09T00:10:56.739Z,1.07
2018-07-09T00:13:25.756Z,1.10
2018-07-09T00:15:54.532Z,1.00
2018-07-09T00:18:22.931Z,0.90
2018-07-09T00:20:51.318Z,0.90
2018-07-09T00:23:19.806Z,1.17
2018-07-09T00:25:49.194Z,1.53
2018-07-09T00:28:18.594Z,1.10
2018-07-09T00:30:46.956Z,1.10
2018-07-09T00:33:15.922Z,1.13
2018-07-09T00:35:44.300Z,1.10
2018-07-09T00:38:12.592Z,1.17
2018-07-09T00:40:40.996Z,0.93
2018-07-09T00:43:09.308Z,1.20
2018-07-09T00:45:37.395Z,0.90
2018-07-09T00:48:05.891Z,1.10
2018-07-09T00:53:25.244Z,1.00
2018-07-09T00:55:53.627Z,1.13
2018-07-09T00:58:22.070Z,1.07
2018-07-09T01:00:50.416Z,1.07
2018-07-09T01:03:18.811Z,1.17
2018-07-09T01:05:47.169Z,1.07
2018-07-09T01:08:15.568Z,1.23
2018-07-09T01:10:55.097Z,1.00
2018-07-09T01:13:44.844Z,1.40
2018-07-09T01:16:13.263Z,1.17
2018-07-09T01:18:42.181Z,1.27
2018-07-09T01:21:12.502Z,1.00
2018-07-09T01:23:40.911Z,1.20
2018-07-09T01:26:09.490Z,1.03
2018-07-09T01:28:38.863Z,1.20
2018-07-09T01:31:07.223Z,1.10
2018-07-09T01:33:35.566Z,1.00
2018-07-09T01:36:03.663Z,1.23
2018-07-09T01:38:32.130Z,1.00
2018-07-09T01:41:00.231Z,1.10
2018-07-09T01:43:28.574Z,1.43
2018-07-09T01:45:56.633Z,1.20
2018-07-09T01:48:24.709Z,1.27
2018-07-09T01:50:52.789Z,0.90
2018-07-09T01:53:20.860Z,0.93
2018-07-09T01:55:49.209Z,1.30
2018-07-09T01:58:17.557Z,1.20
2018-07-09T02:00:45.916Z,1.30
2018-07-09T02:03:14.284Z,1.40
2018-07-09T02:05:42.633Z,1.23
2018-07-09T02:08:11.017Z,1.30
2018-07-09T02:10:39.394Z,1.13
2018-07-09T02:13:07.675Z,1.20
2018-07-09T02:15:36.013Z,1.20
2018-07-09T02:18:04.331Z,1.30
2018-07-09T02:20:32.767Z,1.10
2018-07-09T02:23:01.089Z,1.30
2018-07-09T02:25:29.125Z,1.30
2018-07-09T02:27:57.519Z,1.40
2018-07-09T02:30:25.831Z,1.23
2018-07-09T02:32:54.166Z,1.47
2018-07-09T02:35:22.559Z,1.10
2018-07-09T02:37:50.946Z,1.20
2018-07-09T02:40:19.297Z,1.50
2018-07-09T02:42:47.680Z,1.20
2018-07-09T02:45:16.057Z,1.40
2018-07-09T02:47:45.012Z,1.30
2018-07-09T02:50:13.366Z,1.43
2018-07-09T02:52:41.420Z,1.50
2018-07-09T02:55:09.746Z,1.37
2018-07-09T02:57:38.074Z,1.13
2018-07-09T03:00:06.455Z,1.33
2018-07-09T03:02:34.852Z,1.57
2018-07-09T03:05:03.243Z,1.63
2018-07-09T03:07:31.592Z,1.20
2018-07-09T03:09:59.945Z,1.50
2018-07-09T03:12:28.274Z,1.37
2018-07-09T03:14:56.597Z,1.40
2018-07-09T03:17:24.990Z,1.50
2018-07-09T03:19:53.348Z,1.20
2018-07-09T03:22:21.705Z,1.03
2018-07-09T03:24:50.077Z,1.40
2018-07-09T03:27:18.386Z,1.30
2018-07-09T03:29:47.517Z,1.77
2018-07-09T03:32:15.901Z,1.20
2018-07-09T03:34:43.945Z,1.23
2018-07-09T03:37:12.316Z,1.57
2018-07-09T03:39:40.730Z,1.50
2018-07-09T03:42:08.795Z,1.30
2018-07-09T03:44:37.351Z,1.70
2018-07-09T03:47:05.862Z,1.50
2018-07-09T03:49:34.256Z,1.30
2018-07-09T03:52:02.282Z,1.40
2018-07-09T03:54:30.631Z,1.30
2018-07-09T03:56:58.998Z,1.47
2018-07-09T03:59:28.762Z,1.27
2018-07-09T04:01:57.075Z,1.50
2018-07-09T04:04:25.426Z,1.30
2018-07-09T04:06:53.996Z,1.57
2018-07-09T04:09:22.319Z,1.43
2018-07-09T04:11:50.359Z,1.50
2018-07-09T04:14:18.667Z,1.47
2018-07-09T04:16:46.972Z,1.30
2018-07-09T04:19:15.312Z,1.40
2018-07-09T04:21:43.691Z,1.20
2018-07-09T04:24:12.053Z,1.40
2018-07-09T04:26:40.407Z,1.70
2018-07-09T04:29:08.753Z,1.40
2018-07-09T04:31:37.116Z,1.50
2018-07-09T04:34:05.436Z,1.20
2018-07-09T04:36:33.767Z,1.80
2018-07-09T04:39:02.103Z,1.70
2018-07-09T04:41:30.517Z,1.20
2018-07-09T04:43:58.847Z,1.40
2018-07-09T04:46:27.166Z,1.80
2018-07-09T04:48:55.437Z,1.27
2018-07-09T04:51:23.782Z,1.50
2018-07-09T04:53:52.154Z,1.50
2018-07-09T04:56:20.532Z,1.40
2018-07-09T04:58:48.903Z,1.80
2018-07-09T05:01:17.282Z,1.47
2018-07-09T05:03:45.688Z,1.40
2018-07-09T05:06:13.999Z,1.80
2018-07-09T05:08:42.039Z,2.00
2018-07-09T05:11:10.392Z,1.57
2018-07-09T05:13:38.723Z,2.10
2018-07-09T05:16:07.395Z,1.53
2018-07-09T05:18:35.835Z,1.97
2018-07-09T05:21:04.194Z,1.80
2018-07-09T05:23:32.483Z,1.83
2018-07-09T05:26:00.809Z,2.03
2018-07-09T05:28:29.214Z,1.73
2018-07-09T05:30:57.604Z,1.90
2018-07-09T05:33:25.929Z,1.70
2018-07-09T05:35:54.385Z,1.70
2018-07-09T05:38:22.753Z,1.40
2018-07-09T05:40:51.136Z,1.60
2018-07-09T05:43:19.583Z,1.50
2018-07-09T05:45:47.819Z,1.60
2018-07-09T05:48:16.233Z,1.50
2018-07-09T05:50:44.610Z,1.43
2018-07-09T05:53:13.075Z,1.50
2018-07-09T05:55:41.445Z,1.53
2018-07-09T05:58:09.824Z,1.63
2018-07-09T06:00:38.190Z,1.60
2018-07-09T06:03:06.581Z,1.73
2018-07-09T06:05:34.988Z,1.60
2018-07-09T06:08:03.305Z,1.70
2018-07-09T06:10:31.634Z,1.30
2018-07-09T06:13:00.028Z,1.73
2018-07-09T06:15:28.060Z,1.67
2018-07-09T06:17:56.488Z,1.57
2018-07-09T06:20:24.559Z,1.50
2018-07-09T06:22:52.979Z,1.40
2018-07-09T06:25:21.371Z,1.33
2018-07-09T06:27:49.678Z,1.57
2018-07-09T06:30:18.029Z,1.37
2018-07-09T06:32:46.426Z,1.40
2018-07-09T06:35:14.822Z,1.70
2018-07-09T06:37:43.142Z,1.30
2018-07-09T06:40:11.499Z,1.33
2018-07-09T06:42:39.803Z,1.47
2018-07-09T06:45:07.906Z,1.40
2018-07-09T06:47:36.238Z,1.40
2018-07-09T06:50:04.671Z,1.20
2018-07-09T06:52:33.058Z,1.10
2018-07-09T06:55:01.387Z,1.07
2018-07-09T06:57:29.751Z,1.10
2018-07-09T06:59:58.055Z,1.30
2018-07-09T07:02:26.477Z,1.20
2018-07-09T07:04:54.839Z,1.17
2018-07-09T07:07:23.231Z,1.07
2018-07-09T07:09:51.829Z,1.00
2018-07-09T07:12:20.139Z,1.30
2018-07-09T07:14:48.552Z,1.00
2018-07-09T07:17:16.907Z,0.97
2018-07-09T07:19:45.232Z,1.17
2018-07-09T07:22:13.642Z,0.90
2018-07-09T07:24:42.039Z,1.10
2018-07-09T07:27:10.479Z,0.80
2018-07-09T07:29:38.922Z,1.37
2018-07-09T07:32:07.347Z,0.93
2018-07-09T07:34:35.719Z,0.80
2018-07-09T07:37:04.421Z,1.00
2018-07-09T07:39:32.852Z,0.83
2018-07-09T07:42:01.183Z,1.20
2018-07-09T07:44:29.600Z,1.27
2018-07-09T07:46:57.926Z,1.10
2018-07-09T07:49:26.310Z,0.90
2018-07-09T07:51:54.725Z,1.10
2018-07-09T07:54:23.069Z,0.80
2018-07-09T07:56:51.459Z,1.30
2018-07-09T07:59:20.547Z,1.10
2018-07-09T08:01:49.267Z,1.10
2018-07-09T08:04:17.782Z,0.80
2018-07-09T08:06:46.134Z,1.00
2018-07-09T08:09:14.528Z,1.13
2018-07-09T08:11:48.560Z,1.30
2018-07-09T08:14:11.262Z,1.07
2018-07-09T08:16:39.623Z,1.23
2018-07-09T08:19:08.036Z,1.10
2018-07-09T08:21:36.608Z,1.13
2018-07-09T08:24:05.100Z,1.10
2018-07-09T08:26:33.461Z,1.37
2018-07-09T08:29:01.899Z,1.20
2018-07-09T08:31:30.262Z,1.37
2018-07-09T08:33:58.799Z,1.20
2018-07-09T08:36:27.109Z,0.90
2018-07-09T08:38:55.462Z,1.00
2018-07-09T08:41:23.814Z,0.90
2018-07-09T08:43:52.237Z,0.87
2018-07-09T08:46:20.658Z,1.10
2018-07-09T08:48:49.090Z,0.80
2018-07-09T08:51:17.460Z,1.30
2018-07-09T08:53:45.832Z,1.20
2018-07-09T08:56:14.169Z,0.90
2018-07-09T08:58:42.535Z,0.90
2018-07-09T09:01:10.888Z,1.20
2018-07-09T09:03:39.301Z,1.07
2018-07-09T09:06:07.745Z,1.03
2018-07-09T09:08:36.129Z,0.90
2018-07-09T09:11:04.495Z,1.10
2018-07-09T09:13:32.852Z,0.80
2018-07-09T09:16:01.192Z,1.13
2018-07-09T09:18:30.316Z,0.90
2018-07-09T09:20:57.676Z,0.90
2018-07-09T09:23:26.050Z,1.00
2018-07-09T09:25:54.433Z,0.90
2018-07-09T09:28:22.791Z,0.87
2018-07-09T09:30:51.152Z,0.90
2018-07-09T09:33:19.225Z,1.13
2018-07-09T09:35:47.539Z,1.00
2018-07-09T09:38:15.990Z,0.80
2018-07-09T09:40:44.084Z,0.83
2018-07-09T09:43:12.568Z,0.90
2018-07-09T09:45:40.891Z,1.00
2018-07-09T09:48:09.255Z,0.90
2018-07-09T09:50:37.599Z,1.07
2018-07-09T09:53:06.073Z,1.00
2018-07-09T09:55:34.602Z,0.93
2018-07-09T09:58:03.035Z,0.80
2018-07-09T10:00:36.883Z,0.90
2018-07-09T10:03:05.170Z,1.00
2018-07-09T10:05:33.551Z,0.97
2018-07-09T10:08:01.896Z,0.67
2018-07-09T10:10:30.260Z,0.60
2018-07-09T10:12:58.704Z,0.80
2018-07-09T10:15:27.054Z,0.90
2018-07-09T10:17:55.438Z,0.90
2018-07-09T10:20:23.799Z,0.83
2018-07-09T10:22:52.491Z,0.90
2018-07-09T10:25:20.977Z,0.70
2018-07-09T10:27:49.326Z,0.70
2018-07-09T10:30:17.776Z,0.60
2018-07-09T10:32:46.129Z,0.80
2018-07-09T10:35:14.820Z,1.03
2018-07-09T10:37:43.184Z,0.90
2018-07-09T10:40:11.574Z,0.97
2018-07-09T10:42:39.949Z,1.10
2018-07-09T10:45:08.315Z,1.00
2018-07-09T10:47:36.742Z,1.00
2018-07-09T10:50:05.154Z,0.90
2018-07-09T10:52:33.577Z,0.90
2018-07-09T10:55:01.975Z,1.10
2018-07-09T10:57:30.393Z,0.67
2018-07-09T10:59:58.759Z,0.80
2018-07-09T11:02:27.202Z,0.80
2018-07-09T11:04:55.650Z,0.73
2018-07-09T11:07:24.047Z,0.77
2018-07-09T11:09:52.406Z,0.70
2018-07-09T11:12:20.767Z,0.90
2018-07-09T11:14:49.106Z,0.70
2018-07-09T11:17:17.183Z,0.80
2018-07-09T11:19:45.514Z,0.83
2018-07-09T11:22:13.853Z,0.83
2018-07-09T11:24:42.218Z,0.90
2018-07-09T11:27:10.291Z,0.90
2018-07-09T11:29:38.500Z,0.90
2018-07-09T11:32:06.872Z,1.20
2018-07-09T11:34:35.261Z,0.70
2018-07-09T11:37:03.583Z,0.73
2018-07-09T11:39:31.989Z,0.87
2018-07-09T11:42:00.066Z,0.90
2018-07-09T11:44:28.989Z,0.67
2018-07-09T11:46:57.388Z,0.80
2018-07-09T11:49:25.791Z,0.60
2018-07-09T11:51:53.845Z,0.80
2018-07-09T11:54:22.248Z,1.00
2018-07-09T11:56:50.307Z,0.80
2018-07-09T11:59:19.163Z,0.93
2018-07-09T12:01:47.593Z,0.77
2018-07-09T12:04:15.913Z,0.77
2018-07-09T12:06:44.269Z,0.97
2018-07-09T12:09:12.611Z,0.80
2018-07-09T12:11:41.152Z,1.00
2018-07-09T12:14:09.542Z,1.00
2018-07-09T12:16:37.899Z,0.70
2018-07-09T12:19:06.267Z,0.90
2018-07-09T12:21:34.751Z,1.23
2018-07-09T12:24:03.010Z,0.63
2018-07-09T12:26:31.369Z,0.77
2018-07-09T12:28:59.748Z,0.80
2018-07-09T12:31:27.786Z,0.90
2018-07-09T12:33:56.111Z,0.90
2018-07-09T12:36:24.281Z,0.90
2018-07-09T12:38:52.535Z,0.90
2018-07-09T12:41:20.916Z,0.67
2018-07-09T12:43:49.267Z,0.80
2018-07-09T12:46:17.594Z,0.80
2018-07-09T12:48:45.950Z,0.90
2018-07-09T12:51:14.286Z,0.90
2018-07-09T12:53:42.606Z,1.00
2018-07-09T12:56:11.008Z,1.10
2018-07-09T12:58:39.344Z,1.00
2018-07-09T13:01:07.755Z,1.17
2018-07-09T13:03:35.818Z,1.00
2018-07-09T13:06:04.242Z,1.23
2018-07-09T13:08:32.615Z,1.40
2018-07-09T13:11:01.006Z,1.20
2018-07-09T13:13:29.382Z,1.53
2018-07-09T13:15:57.701Z,1.50
2018-07-09T13:18:26.039Z,1.47
2018-07-09T13:20:54.347Z,1.53
2018-07-09T13:23:22.828Z,1.40
2018-07-09T13:25:51.154Z,1.53
2018-07-09T13:28:19.530Z,1.30
2018-07-09T13:30:47.965Z,1.43
2018-07-09T13:33:16.327Z,1.17
2018-07-09T13:35:44.714Z,1.30
2018-07-09T13:38:13.047Z,1.40
2018-07-09T13:40:41.385Z,1.13
2018-07-09T13:43:09.779Z,1.43
2018-07-09T13:45:38.158Z,1.40
2018-07-09T13:48:06.594Z,1.27
2018-07-09T13:50:35.315Z,1.30
2018-07-09T13:53:03.681Z,1.43
2018-07-09T13:55:32.114Z,1.37
2018-07-09T13:58:00.468Z,1.30
2018-07-09T14:00:28.576Z,1.70
2018-07-09T14:02:56.893Z,1.30
2018-07-09T14:05:25.291Z,1.50
2018-07-09T14:07:53.607Z,1.30
2018-07-09T14:10:21.969Z,1.20
2018-07-09T14:12:50.264Z,1.57
2018-07-09T14:15:18.646Z,1.33
2018-07-09T14:17:47.088Z,1.10
2018-07-09T14:20:22.342Z,1.30
2018-07-09T14:22:50.670Z,1.20
2018-07-09T14:25:19.457Z,1.57
2018-07-09T14:27:48.039Z,1.30
2018-07-09T14:30:16.716Z,1.00
2018-07-09T14:32:45.070Z,1.30
2018-07-09T14:35:13.560Z,1.13
2018-07-09T14:37:41.881Z,1.53
2018-07-09T14:40:10.340Z,1.30
2018-07-09T14:42:38.691Z,1.10
2018-07-09T14:45:07.608Z,1.20
2018-07-09T14:47:35.938Z,1.60
2018-07-09T14:50:04.416Z,1.27
2018-07-09T14:52:32.816Z,1.20
2018-07-09T14:55:01.316Z,1.30
2018-07-09T14:57:29.654Z,1.30
2018-07-09T14:59:58.047Z,1.03
2018-07-09T15:02:26.406Z,1.60
2018-07-09T15:04:54.762Z,1.40
2018-07-09T15:07:23.445Z,1.53
2018-07-09T15:09:51.833Z,1.03
2018-07-09T15:12:20.265Z,1.27
2018-07-09T15:14:48.586Z,1.10
2018-07-09T15:17:16.926Z,1.27
2018-07-09T15:19:45.218Z,1.10
2018-07-09T15:22:13.568Z,1.20
2018-07-09T15:24:41.941Z,1.70
2018-07-09T15:27:10.277Z,1.20
2018-07-09T15:29:38.724Z,1.10
2018-07-09T15:32:23.207Z,1.53
2018-07-09T15:34:51.765Z,1.10
2018-07-09T15:37:20.253Z,1.07
2018-07-09T15:39:48.685Z,1.20
2018-07-09T15:42:16.724Z,1.20
2018-07-09T15:44:45.138Z,0.93
2018-07-09T15:47:13.510Z,1.10
2018-07-09T15:49:42.155Z,1.17
2018-07-09T15:52:10.513Z,1.13
2018-07-09T15:54:38.864Z,1.30
2018-07-09T15:57:06.896Z,1.30
2018-07-09T15:59:36.665Z,1.20
2018-07-09T16:02:04.780Z,1.10
2018-07-09T16:04:33.145Z,1.03
2018-07-09T16:07:01.541Z,1.17
2018-07-09T16:09:29.950Z,0.80
2018-07-09T16:11:58.278Z,1.07
2018-07-09T16:14:26.623Z,0.80
2018-07-09T16:16:54.916Z,1.00
2018-07-09T16:19:23.233Z,0.90
2018-07-09T16:21:51.614Z,1.40
2018-07-09T16:24:19.949Z,0.97
2018-07-09T16:26:48.267Z,1.03
2018-07-09T16:29:17.093Z,1.30
2018-07-09T16:31:45.368Z,0.87
2018-07-09T16:34:13.681Z,1.37
2018-07-09T16:36:42.071Z,1.27
2018-07-09T16:39:10.463Z,1.10
2018-07-09T16:41:38.908Z,1.40
2018-07-09T16:44:07.298Z,1.30
2018-07-09T16:46:35.720Z,1.23
2018-07-09T16:49:04.290Z,1.67
2018-07-09T16:51:32.695Z,1.30
2018-07-09T16:54:00.708Z,1.37
2018-07-09T16:56:29.099Z,1.47
2018-07-09T16:58:57.153Z,1.43
2018-07-09T17:01:25.532Z,1.30
2018-07-09T17:03:53.882Z,1.23
2018-07-09T17:06:22.366Z,1.40
2018-07-09T17:08:50.706Z,1.40
2018-07-09T17:11:19.072Z,1.20
2018-07-09T17:13:47.500Z,1.23
2018-07-09T17:16:15.868Z,1.20
2018-07-09T17:18:43.975Z,1.03
2018-07-09T17:21:12.320Z,1.07
2018-07-09T17:23:40.435Z,1.10
2018-07-09T17:26:08.796Z,1.33
2018-07-09T17:28:37.175Z,0.97
2018-07-09T17:31:05.610Z,1.07
2018-07-09T17:33:33.916Z,0.90
2018-07-09T17:36:01.959Z,0.97
2018-07-09T17:38:30.332Z,1.17
2018-07-09T17:40:58.649Z,1.10
2018-07-09T17:43:27.033Z,1.00
2018-07-09T17:45:55.392Z,0.90
2018-07-09T17:48:23.604Z,1.13
2018-07-09T17:50:51.939Z,0.90
2018-07-09T17:53:19.999Z,1.00
2018-07-09T17:55:48.554Z,0.83
2018-07-09T17:58:16.970Z,0.90
2018-07-09T18:00:45.022Z,1.10
2018-07-09T18:03:13.424Z,0.90
2018-07-09T18:05:41.514Z,0.80
2018-07-09T18:08:09.932Z,0.93
2018-07-09T18:10:38.315Z,0.80
2018-07-09T18:13:06.758Z,0.80
2018-07-09T18:15:35.130Z,0.60
2018-07-09T18:18:03.187Z,1.00
2018-07-09T18:20:31.262Z,0.90
2018-07-09T18:22:59.330Z,1.00
2018-07-09T18:25:27.879Z,0.83
2018-07-09T18:27:56.192Z,0.90
2018-07-09T18:30:24.222Z,1.10
2018-07-09T18:32:52.529Z,0.80
2018-07-09T18:35:20.984Z,1.63
2018-07-09T18:37:49.284Z,0.80
2018-07-09T18:40:17.769Z,1.10
2018-07-09T18:42:46.220Z,0.83
2018-07-09T18:45:14.550Z,1.00
2018-07-09T18:47:42.899Z,0.80
2018-07-09T18:52:43.327Z,0.80
2018-07-09T18:55:11.611Z,0.93
2018-07-09T18:57:39.928Z,0.90
2018-07-09T19:00:07.954Z,0.90
2018-07-09T19:02:36.213Z,1.03
2018-07-09T19:05:04.262Z,0.90
2018-07-09T19:07:32.283Z,0.80
2018-07-09T19:10:00.743Z,0.83
2018-07-09T19:12:32.990Z,1.00
2018-07-09T19:15:01.035Z,0.93
2018-07-09T19:18:07.112Z,0.83
2018-07-09T19:21:49.692Z,1.00
2018-07-09T19:24:16.954Z,1.03
2018-07-09T19:26:44.580Z,0.90
2018-07-09T19:29:11.827Z,1.00
2018-07-09T19:31:39.022Z,0.90
2018-07-09T19:34:06.318Z,1.10
2018-07-09T19:36:33.930Z,0.83
2018-07-09T19:39:01.100Z,1.00
2018-07-09T19:41:28.413Z,1.20
2018-07-09T19:43:55.680Z,0.93
2018-07-09T19:46:22.895Z,1.10
2018-07-09T19:48:50.127Z,0.90
2018-07-09T19:51:17.614Z,1.00
2018-07-09T19:53:44.865Z,0.90
2018-07-09T19:56:12.137Z,0.90
2018-07-09T19:58:39.423Z,1.00
2018-07-09T20:01:06.632Z,1.20
2018-07-09T20:03:33.891Z,1.30
2018-07-09T20:06:01.141Z,1.10
2018-07-09T20:08:34.043Z,1.10
2018-07-09T20:11:06.795Z,1.50
2018-07-09T20:13:51.370Z,1.23
2018-07-09T20:16:24.087Z,1.37
2018-07-09T20:18:52.828Z,1.13
2018-07-09T20:21:20.101Z,0.93
2018-07-09T20:23:47.375Z,1.30
2018-07-09T20:26:14.620Z,2.20
2018-07-09T20:28:41.844Z,1.60
2018-07-09T20:31:09.102Z,1.50
2018-07-09T20:33:36.344Z,1.40
2018-07-09T20:36:03.644Z,1.73
2018-07-09T20:38:30.891Z,1.43
2018-07-09T20:40:58.315Z,1.50
2018-07-09T20:43:25.622Z,1.10
2018-07-09T20:45:52.837Z,1.70
2018-07-09T20:48:20.076Z,1.60
2018-07-09T20:50:47.293Z,1.43
2018-07-09T20:53:14.555Z,1.50
2018-07-09T20:55:41.774Z,1.40
2018-07-09T20:58:09.008Z,1.60
2018-07-09T21:00:36.251Z,1.50
2018-07-09T21:03:03.608Z,1.70
2018-07-09T21:05:30.851Z,1.63
2018-07-09T21:07:58.167Z,1.60
2018-07-09T21:10:25.390Z,1.83
2018-07-09T21:12:58.875Z,1.80
2018-07-09T21:15:27.518Z,1.87
2018-07-09T21:17:54.761Z,1.77
2018-07-09T21:20:22.011Z,2.00
2018-07-09T21:22:49.558Z,2.20
2018-07-09T21:25:17.555Z,2.20
2018-07-09T21:27:44.808Z,2.43
2018-07-09T21:30:12.034Z,2.10
2018-07-09T21:32:39.540Z,2.20
2018-07-09T21:35:06.743Z,2.60
2018-07-09T21:37:34.327Z,2.10
2018-07-09T21:40:01.526Z,2.13
2018-07-09T21:42:28.790Z,2.40
2018-07-09T21:44:56.000Z,2.43
2018-07-09T21:47:23.247Z,2.00
2018-07-09T21:49:50.503Z,2.40
2018-07-09T21:52:17.720Z,2.80
2018-07-09T21:54:44.923Z,2.90
2018-07-09T21:57:12.181Z,2.90
2018-07-09T21:59:39.469Z,3.20
2018-07-09T22:02:06.971Z,3.10
2018-07-09T22:04:34.181Z,3.87
2018-07-09T22:07:01.453Z,4.00
2018-07-09T22:09:28.694Z,2.87
2018-07-09T22:11:55.928Z,3.10
2018-07-09T22:14:23.470Z,3.03
2018-07-09T22:16:50.734Z,3.33
2018-07-09T22:19:17.955Z,3.27
2018-07-09T22:21:45.490Z,2.77
2018-07-09T22:24:12.782Z,3.43
2018-07-09T22:26:40.034Z,3.20
2018-07-09T22:29:07.252Z,2.93
2018-07-09T22:31:35.543Z,3.07
2018-07-09T22:34:03.866Z,3.10
2018-07-09T22:36:32.131Z,2.73
2018-07-09T22:39:00.418Z,2.23
2018-07-09T22:41:28.443Z,2.43
2018-07-09T22:44:08.039Z,2.27
2018-07-09T22:46:36.298Z,2.30
2018-07-09T22:49:04.565Z,2.17
2018-07-09T22:51:32.867Z,2.23
2018-07-09T22:54:01.172Z,2.03
2018-07-09T22:56:29.470Z,1.80
2018-07-09T22:58:57.730Z,1.97
2018-07-09T23:01:26.031Z,2.10
2018-07-09T23:03:54.299Z,1.73
2018-07-09T23:06:22.620Z,1.63
2018-07-09T23:13:47.683Z,1.80
2018-07-09T23:17:55.527Z,1.10
2018-07-09T23:20:36.050Z,1.00
2018-07-09T23:23:03.306Z,1.10
2018-07-09T23:25:30.541Z,1.13
2018-07-09T23:27:57.810Z,1.10
2018-07-09T23:30:25.083Z,1.03
2018-07-09T23:32:52.365Z,1.17
2018-07-09T23:35:19.645Z,1.10
2018-07-09T23:37:46.960Z,0.93
2018-07-09T23:40:14.243Z,0.90
2018-07-09T23:42:41.493Z,1.20
2018-07-09T23:45:08.777Z,1.10
2018-07-09T23:47:36.017Z,1.03
2018-07-09T23:50:03.352Z,0.93
2018-07-09T23:52:30.611Z,1.10
2018-07-09T23:54:57.836Z,1.17
2018-07-09T23:57:36.134Z,0.87
